Ernest, Pennsylvania
Current Conditions -  °F | °C
As of 9:15 AM on Thursday 18 Dec 2014 (Local Time) from KIDI Reporting Station
Haze Haze  
Wind Chill: 19°   Ceiling: 1500
Heat Index: 27°   Visibility: 4mi
Dew Point: 23°   Wind: 7mph
Humidity: 86%   Direction: 300°WNW
Pressure: 30.18"   Gusts: NA
Location:  40.68°N, 79.16°W
Report Text: KIDI 181415Z AUTO 30006KT 4SM BR OVC015 M03/M05 A3018 RMK A01
Loading
Personal Weather Stations






























Interactive Weather Map New forecast layout! Learn more

10-Day Weather Forecast

Advertisements
Track Severe Weather on mobile